Time;durP1;ratioP1;P1;durP2;ratioP2;P2;SDS_P1;SDS_P2;PMS_P1;PMS_P2;Temp;Humidity;BMP_temperature;BMP_pressure;BME280_temperature;BME280_humidity;BME280_pressure;Samples;Min_cycle;Max_cycle;Signal;HPM_P1;HPM_P2
2023/04/26 00:01:53;;;;;;;13.88;7.88;;;;;;;;;;5051526;28;20106;-78
2023/04/26 00:04:20;;;;;;;15.85;8.23;;;;;;;;;;5051453;28;20136;-77
2023/04/26 00:06:48;;;;;;;15.10;8.77;;;;;;;;;;5051418;28;20049;-78
2023/04/26 00:09:14;;;;;;;12.70;7.65;;;;;;;;;;5051512;28;20057;-78
2023/04/26 00:11:41;;;;;;;15.50;8.50;;;;;;;;;;5050576;28;20559;-78
2023/04/26 00:14:08;;;;;;;15.27;8.70;;;;;;;;;;5051466;28;20368;-78
2023/04/26 00:16:34;;;;;;;17.25;9.45;;;;;;;;;;5051597;28;20133;-77
2023/04/26 00:19:02;;;;;;;17.17;9.30;;;;;;;;;;5051311;28;20608;-78
2023/04/26 00:21:29;;;;;;;15.52;8.73;;;;;;;;;;5050928;28;20132;-77
2023/04/26 00:23:57;;;;;;;16.70;8.50;;;;;;;;;;5050967;28;20055;-77
2023/04/26 00:26:24;;;;;;;14.25;8.18;;;;;;;;;;5050606;28;20439;-77
2023/04/26 00:28:51;;;;;;;14.48;8.82;;;;;;;;;;5050341;28;20499;-77
2023/04/26 00:31:18;;;;;;;17.17;9.10;;;;;;;;;;5049997;28;20147;-78
2023/04/26 00:33:44;;;;;;;17.70;9.40;;;;;;;;;;5053600;28;20079;-78
2023/04/26 00:36:13;;;;;;;16.30;8.55;;;;;;;;;;5054555;28;20049;-78
2023/04/26 00:38:40;;;;;;;17.52;8.73;;;;;;;;;;5054497;28;20114;-77
2023/04/26 00:41:08;;;;;;;15.77;8.90;;;;;;;;;;5054491;28;20463;-77
2023/04/26 00:43:34;;;;;;;15.00;7.80;;;;;;;;;;5054239;28;20104;-77
2023/04/26 00:46:01;;;;;;;16.75;8.55;;;;;;;;;;5054722;28;20466;-77
2023/04/26 00:48:28;;;;;;;17.27;7.95;;;;;;;;;;5058568;28;20128;-77
2023/04/26 00:50:55;;;;;;;15.30;8.00;;;;;;;;;;5060506;28;20048;-78
2023/04/26 00:53:22;;;;;;;16.35;7.93;;;;;;;;;;5060289;28;20108;-77
2023/04/26 00:55:50;;;;;;;14.02;7.78;;;;;;;;;;5059213;28;20046;-77
2023/04/26 00:58:18;;;;;;;14.82;7.93;;;;;;;;;;5054542;28;20049;-77
2023/04/26 01:00:45;;;;;;;13.30;7.40;;;;;;;;;;5053759;28;20056;-78
2023/04/26 01:03:12;;;;;;;16.83;8.18;;;;;;;;;;5054038;28;20087;-77
2023/04/26 01:05:38;;;;;;;15.80;8.80;;;;;;;;;;5054280;28;20447;-77
2023/04/26 01:08:06;;;;;;;15.00;8.10;;;;;;;;;;5053525;28;20123;-78
2023/04/26 01:10:34;;;;;;;12.63;7.43;;;;;;;;;;5054023;28;20144;-78
2023/04/26 01:13:03;;;;;;;12.60;7.72;;;;;;;;;;5053490;28;20045;-78
2023/04/26 01:15:32;;;;;;;13.98;7.93;;;;;;;;;;5054125;28;20136;-78
2023/04/26 01:17:59;;;;;;;13.82;7.97;;;;;;;;;;5052586;28;20045;-77
2023/04/26 01:20:25;;;;;;;13.63;8.00;;;;;;;;;;5053255;28;20392;-78
2023/04/26 01:22:53;;;;;;;15.05;8.45;;;;;;;;;;5052576;28;20510;-78
2023/04/26 01:25:21;;;;;;;12.55;6.85;;;;;;;;;;5053463;28;20045;-77
2023/04/26 01:27:48;;;;;;;16.08;8.40;;;;;;;;;;5053732;28;20064;-78
2023/04/26 01:30:14;;;;;;;13.48;7.75;;;;;;;;;;5053987;28;20052;-77
2023/04/26 01:32:41;;;;;;;13.93;7.90;;;;;;;;;;5053712;28;20471;-77
2023/04/26 01:35:08;;;;;;;13.75;8.00;;;;;;;;;;5053656;28;20155;-78
2023/04/26 01:37:35;;;;;;;13.18;7.00;;;;;;;;;;5054130;28;20088;-78
2023/04/26 01:40:05;;;;;;;13.85;6.32;;;;;;;;;;5054268;28;20085;-77
2023/04/26 01:42:31;;;;;;;14.20;7.40;;;;;;;;;;5053723;28;20641;-77
2023/04/26 01:44:58;;;;;;;10.55;5.95;;;;;;;;;;5054378;28;20361;-77
2023/04/26 01:47:26;;;;;;;12.88;6.47;;;;;;;;;;5053664;28;20526;-77
2023/04/26 01:49:53;;;;;;;12.43;6.72;;;;;;;;;;5054047;28;20049;-78
2023/04/26 01:52:20;;;;;;;11.27;5.70;;;;;;;;;;5053699;28;20049;-78
2023/04/26 01:54:47;;;;;;;11.63;6.15;;;;;;;;;;5055054;28;20051;-77
2023/04/26 01:57:15;;;;;;;10.85;6.00;;;;;;;;;;5054280;28;20049;-78
2023/04/26 01:59:41;;;;;;;12.40;6.90;;;;;;;;;;5054684;28;20045;-78
2023/04/26 02:02:08;;;;;;;13.02;6.80;;;;;;;;;;5043372;28;20137;-77
2023/04/26 02:04:35;;;;;;;12.25;6.95;;;;;;;;;;5033006;28;20072;-77
2023/04/26 02:07:02;;;;;;;14.95;6.63;;;;;;;;;;5032467;28;20091;-78
2023/04/26 02:09:29;;;;;;;12.80;6.70;;;;;;;;;;5033088;28;20077;-78
2023/04/26 02:11:55;;;;;;;13.40;6.63;;;;;;;;;;5033055;28;20053;-78
2023/04/26 02:14:23;;;;;;;12.20;6.55;;;;;;;;;;5037916;28;20053;-78
2023/04/26 02:16:50;;;;;;;12.80;7.35;;;;;;;;;;5072026;28;20055;-78
2023/04/26 02:19:17;;;;;;;13.43;6.63;;;;;;;;;;5073133;28;20052;-79
2023/04/26 02:21:52;;;;;;;14.13;6.68;;;;;;;;;;5070356;28;20048;-76
2023/04/26 02:24:18;;;;;;;14.15;7.03;;;;;;;;;;5072441;28;20048;-77
2023/04/26 02:26:45;;;;;;;13.32;6.47;;;;;;;;;;5071631;28;20492;-78
2023/04/26 02:29:12;;;;;;;11.90;6.53;;;;;;;;;;5071696;28;20053;-78
2023/04/26 02:31:40;;;;;;;12.70;6.55;;;;;;;;;;5071869;28;20051;-78
2023/04/26 02:34:07;;;;;;;11.93;6.00;;;;;;;;;;5072060;28;20040;-77
2023/04/26 02:36:33;;;;;;;11.07;6.32;;;;;;;;;;5072090;28;20075;-76
2023/04/26 02:39:00;;;;;;;12.45;6.35;;;;;;;;;;5072397;28;20040;-77
2023/04/26 02:41:26;;;;;;;10.85;5.80;;;;;;;;;;5072003;28;20478;-77
2023/04/26 02:43:53;;;;;;;10.48;5.80;;;;;;;;;;5090157;28;20104;-77
2023/04/26 02:46:20;;;;;;;10.88;5.38;;;;;;;;;;5081331;28;20150;-77
2023/04/26 02:48:48;;;;;;;11.02;5.38;;;;;;;;;;5074074;28;20127;-78
2023/04/26 02:51:14;;;;;;;11.82;5.88;;;;;;;;;;5073247;28;20048;-78
2023/04/26 02:53:41;;;;;;;9.52;5.45;;;;;;;;;;5055570;28;20040;-77
2023/04/26 02:56:08;;;;;;;11.52;5.82;;;;;;;;;;5053012;28;20084;-77
2023/04/26 02:58:34;;;;;;;10.73;5.75;;;;;;;;;;5053553;28;20077;-78
2023/04/26 03:01:02;;;;;;;11.10;5.88;;;;;;;;;;5054317;28;20045;-77
2023/04/26 03:03:29;;;;;;;10.77;5.65;;;;;;;;;;5053707;28;20041;-77
2023/04/26 03:05:58;;;;;;;15.10;6.20;;;;;;;;;;5053750;28;20505;-78
2023/04/26 03:08:24;;;;;;;12.10;5.90;;;;;;;;;;5053419;28;20137;-77
2023/04/26 03:10:51;;;;;;;12.02;6.40;;;;;;;;;;5054236;28;20510;-78
2023/04/26 03:13:17;;;;;;;10.63;6.18;;;;;;;;;;5054668;28;20158;-78
2023/04/26 03:15:45;;;;;;;11.00;5.90;;;;;;;;;;5054900;28;20048;-79
2023/04/26 03:18:12;;;;;;;12.40;5.82;;;;;;;;;;5055028;28;20558;-79
2023/04/26 03:20:39;;;;;;;11.40;6.65;;;;;;;;;;5057349;28;20055;-77
2023/04/26 03:23:07;;;;;;;11.85;6.30;;;;;;;;;;5055263;28;20049;-77
2023/04/26 03:25:35;;;;;;;11.13;5.50;;;;;;;;;;5054376;28;20049;-78
2023/04/26 03:28:02;;;;;;;12.50;6.40;;;;;;;;;;5053253;28;20128;-77
2023/04/26 03:30:29;;;;;;;9.63;5.57;;;;;;;;;;5053746;28;20053;-78
2023/04/26 03:32:56;;;;;;;11.63;6.07;;;;;;;;;;5053549;28;20127;-78
2023/04/26 03:35:23;;;;;;;9.80;5.60;;;;;;;;;;5053863;28;20098;-78
2023/04/26 03:37:49;;;;;;;11.85;6.10;;;;;;;;;;5054488;28;20072;-77
2023/04/26 03:40:17;;;;;;;9.50;5.90;;;;;;;;;;5054251;28;20053;-78
2023/04/26 03:42:44;;;;;;;12.07;5.93;;;;;;;;;;5053492;28;20080;-78
2023/04/26 03:45:11;;;;;;;12.88;5.75;;;;;;;;;;5054417;28;20450;-78
2023/04/26 03:47:38;;;;;;;10.23;5.88;;;;;;;;;;5053976;28;20167;-78
2023/04/26 03:50:06;;;;;;;12.93;6.13;;;;;;;;;;5053745;28;20060;-78
2023/04/26 03:52:33;;;;;;;12.13;7.00;;;;;;;;;;5053174;28;20109;-78
2023/04/26 03:55:00;;;;;;;11.20;5.78;;;;;;;;;;5054738;28;20132;-78
2023/04/26 03:57:28;;;;;;;11.52;5.63;;;;;;;;;;5054073;28;20041;-78
2023/04/26 03:59:55;;;;;;;13.68;6.38;;;;;;;;;;5053915;28;20041;-78
2023/04/26 04:02:22;;;;;;;13.85;6.38;;;;;;;;;;5053077;28;20063;-78
2023/04/26 04:04:49;;;;;;;12.07;6.35;;;;;;;;;;5054114;28;20072;-78
2023/04/26 04:07:16;;;;;;;13.43;6.18;;;;;;;;;;5052800;28;20387;-78
2023/04/26 04:09:43;;;;;;;11.52;6.13;;;;;;;;;;5053583;28;20132;-78
2023/04/26 04:12:09;;;;;;;10.90;5.78;;;;;;;;;;5053115;28;20099;-77
2023/04/26 04:14:37;;;;;;;11.55;5.75;;;;;;;;;;5053663;28;20048;-77
2023/04/26 04:17:04;;;;;;;13.05;6.45;;;;;;;;;;5052240;28;20052;-77
2023/04/26 04:19:30;;;;;;;13.00;6.47;;;;;;;;;;5052886;28;20479;-78
2023/04/26 04:21:57;;;;;;;12.15;6.88;;;;;;;;;;5051789;28;20041;-78
2023/04/26 04:24:24;;;;;;;11.70;6.07;;;;;;;;;;5052461;28;20041;-78
2023/04/26 04:26:51;;;;;;;13.23;6.38;;;;;;;;;;5052767;28;20399;-77
2023/04/26 04:29:18;;;;;;;12.45;6.90;;;;;;;;;;5052055;28;20537;-79
2023/04/26 04:31:46;;;;;;;13.95;6.43;;;;;;;;;;5051903;28;20384;-77
2023/04/26 04:34:13;;;;;;;12.45;6.15;;;;;;;;;;5052282;28;20110;-77
2023/04/26 04:36:40;;;;;;;12.25;6.55;;;;;;;;;;5052273;28;20052;-77
2023/04/26 04:39:12;;;;;;;11.32;5.88;;;;;;;;;;5052237;28;20083;-77
2023/04/26 04:41:38;;;;;;;12.15;6.93;;;;;;;;;;5053412;28;20565;-79
2023/04/26 04:44:05;;;;;;;13.90;6.50;;;;;;;;;;5053517;28;20056;-77
2023/04/26 04:46:32;;;;;;;11.38;6.00;;;;;;;;;;5051778;28;20468;-76
2023/04/26 04:49:00;;;;;;;12.68;6.68;;;;;;;;;;5052818;28;20059;-78
2023/04/26 04:51:27;;;;;;;11.20;6.78;;;;;;;;;;5052766;28;20052;-77
2023/04/26 04:53:54;;;;;;;11.25;6.20;;;;;;;;;;5053151;28;20056;-78
2023/04/26 04:56:21;;;;;;;12.52;6.50;;;;;;;;;;5052475;28;20566;-78
2023/04/26 04:58:48;;;;;;;10.27;6.38;;;;;;;;;;5052360;28;20045;-78
2023/04/26 05:01:14;;;;;;;11.68;6.75;;;;;;;;;;5049640;28;20464;-77
2023/04/26 05:03:41;;;;;;;15.50;7.88;;;;;;;;;;5032271;28;20413;-77
2023/04/26 05:06:09;;;;;;;13.55;6.15;;;;;;;;;;5032295;28;20042;-76
2023/04/26 05:08:36;;;;;;;11.10;6.32;;;;;;;;;;5031659;28;20133;-77
2023/04/26 05:11:02;;;;;;;12.88;6.35;;;;;;;;;;5031669;28;20515;-77
2023/04/26 05:13:29;;;;;;;12.27;6.85;;;;;;;;;;5031755;28;20057;-78
2023/04/26 05:15:56;;;;;;;13.75;7.10;;;;;;;;;;5032222;28;20128;-80
2023/04/26 05:18:22;;;;;;;13.73;7.55;;;;;;;;;;5033131;28;20132;-78
2023/04/26 05:20:49;;;;;;;12.88;7.85;;;;;;;;;;5036598;28;20109;-78
2023/04/26 05:23:17;;;;;;;12.50;7.07;;;;;;;;;;5049645;22;20140;-78
2023/04/26 05:25:44;;;;;;;13.45;7.47;;;;;;;;;;5054751;28;20124;-78
2023/04/26 05:28:11;;;;;;;16.55;7.78;;;;;;;;;;5054725;28;20553;-78
2023/04/26 05:30:38;;;;;;;12.65;7.25;;;;;;;;;;5055307;28;20127;-77
2023/04/26 05:33:05;;;;;;;17.05;8.25;;;;;;;;;;5055203;28;20415;-78
2023/04/26 05:35:32;;;;;;;14.90;6.97;;;;;;;;;;5055562;28;20052;-78
2023/04/26 05:37:58;;;;;;;14.98;8.18;;;;;;;;;;5056131;28;20055;-79
2023/04/26 05:40:26;;;;;;;15.52;7.72;;;;;;;;;;5055218;28;20049;-78
2023/04/26 05:42:53;;;;;;;13.40;7.35;;;;;;;;;;5056051;28;20084;-77
2023/04/26 05:45:23;;;;;;;13.20;7.85;;;;;;;;;;5054364;28;20080;-77
2023/04/26 05:47:50;;;;;;;13.30;7.72;;;;;;;;;;5054544;28;20073;-77
2023/04/26 05:50:17;;;;;;;12.52;6.75;;;;;;;;;;5054940;28;20563;-78
2023/04/26 05:52:43;;;;;;;10.63;7.03;;;;;;;;;;5055760;28;20320;-78
2023/04/26 05:55:12;;;;;;;13.63;7.30;;;;;;;;;;5054599;28;20060;-77
2023/04/26 05:57:40;;;;;;;11.73;7.22;;;;;;;;;;5054737;28;20049;-77
2023/04/26 06:00:10;;;;;;;14.07;7.50;;;;;;;;;;5054252;28;20045;-77
2023/04/26 06:02:37;;;;;;;12.30;7.10;;;;;;;;;;5053769;28;20053;-78
2023/04/26 06:05:05;;;;;;;13.48;6.90;;;;;;;;;;5054591;28;20084;-78
2023/04/26 06:07:32;;;;;;;11.70;6.90;;;;;;;;;;5055695;28;20048;-76
2023/04/26 06:10:01;;;;;;;17.20;8.40;;;;;;;;;;5055980;28;20100;-77
2023/04/26 06:12:27;;;;;;;15.63;8.27;;;;;;;;;;5055238;28;20106;-78
2023/04/26 06:14:55;;;;;;;14.18;7.30;;;;;;;;;;5057620;28;20049;-77
2023/04/26 06:17:22;;;;;;;12.88;7.22;;;;;;;;;;5055077;28;20109;-78
2023/04/26 06:19:48;;;;;;;14.77;7.90;;;;;;;;;;5053543;28;20041;-78
2023/04/26 06:22:15;;;;;;;12.93;7.10;;;;;;;;;;5053628;28;20081;-78
2023/04/26 06:24:42;;;;;;;12.35;7.15;;;;;;;;;;5053568;28;20045;-78
2023/04/26 06:27:09;;;;;;;13.90;7.38;;;;;;;;;;5054851;28;20049;-79
2023/04/26 06:29:35;;;;;;;13.77;7.45;;;;;;;;;;5056204;28;20055;-77
2023/04/26 06:32:03;;;;;;;15.00;7.85;;;;;;;;;;5054108;28;20136;-77
2023/04/26 06:34:33;;;;;;;13.25;7.65;;;;;;;;;;5056119;28;20077;-77
2023/04/26 06:37:00;;;;;;;14.63;8.07;;;;;;;;;;5067664;28;20032;-78
2023/04/26 06:39:26;;;;;;;14.20;8.40;;;;;;;;;;5076920;28;20069;-79
2023/04/26 06:41:53;;;;;;;16.20;8.57;;;;;;;;;;5060430;28;20080;-78
2023/04/26 06:44:22;;;;;;;16.70;7.95;;;;;;;;;;5054640;28;20080;-79
2023/04/26 06:46:49;;;;;;;15.77;7.72;;;;;;;;;;5054524;28;20088;-78
2023/04/26 06:49:17;;;;;;;15.30;7.78;;;;;;;;;;5055380;28;20045;-77
2023/04/26 06:51:44;;;;;;;14.55;7.45;;;;;;;;;;5054911;28;20137;-77
2023/04/26 06:54:12;;;;;;;14.82;7.78;;;;;;;;;;5056115;28;20044;-76
2023/04/26 06:56:41;;;;;;;15.65;9.10;;;;;;;;;;5054385;28;20092;-77
2023/04/26 06:59:08;;;;;;;13.88;7.88;;;;;;;;;;5053094;28;20476;-77
2023/04/26 07:01:35;;;;;;;16.85;7.95;;;;;;;;;;5049228;28;20092;-77
2023/04/26 07:04:03;;;;;;;13.07;7.18;;;;;;;;;;5033647;28;20395;-77
2023/04/26 07:06:31;;;;;;;14.60;8.07;;;;;;;;;;5035150;28;20050;-77
2023/04/26 07:08:59;;;;;;;13.85;7.88;;;;;;;;;;5034886;28;20448;-77
2023/04/26 07:11:38;;;;;;;17.35;8.20;;;;;;;;;;5035198;28;20049;-78
2023/04/26 07:14:05;;;;;;;15.50;8.00;;;;;;;;;;5036225;28;20129;-77
2023/04/26 07:16:32;;;;;;;14.00;7.85;;;;;;;;;;5033030;28;20137;-78
2023/04/26 07:18:58;;;;;;;18.95;8.52;;;;;;;;;;5033775;28;20128;-78
2023/04/26 07:21:25;;;;;;;17.33;8.98;;;;;;;;;;5033269;28;20045;-76
2023/04/26 07:23:55;;;;;;;17.65;8.68;;;;;;;;;;5032248;28;20049;-78
2023/04/26 07:26:22;;;;;;;17.02;9.63;;;;;;;;;;5032713;28;20531;-78
2023/04/26 07:28:51;;;;;;;17.27;8.75;;;;;;;;;;5034553;28;20105;-77
2023/04/26 07:31:18;;;;;;;17.13;8.45;;;;;;;;;;5068772;28;20463;-77
2023/04/26 07:33:44;;;;;;;13.63;8.38;;;;;;;;;;5072865;28;20052;-78
2023/04/26 07:36:20;;;;;;;17.58;8.80;;;;;;;;;;5072604;28;20132;-78
2023/04/26 07:38:46;;;;;;;14.68;8.13;;;;;;;;;;5070208;28;20056;-79
2023/04/26 07:41:16;;;;;;;16.77;8.23;;;;;;;;;;5070748;28;20373;-77
2023/04/26 07:43:43;;;;;;;16.38;7.40;;;;;;;;;;5069660;28;20086;-79
2023/04/26 07:46:09;;;;;;;14.75;6.80;;;;;;;;;;5070660;28;20094;-79
2023/04/26 07:48:36;;;;;;;13.50;7.82;;;;;;;;;;5070502;28;20056;-78
2023/04/26 07:51:12;;;;;;;14.57;7.75;;;;;;;;;;5073236;28;20048;-77
2023/04/26 07:53:40;;;;;;;14.70;7.85;;;;;;;;;;5070057;28;20047;-78
2023/04/26 07:56:08;;;;;;;12.98;7.10;;;;;;;;;;5069383;28;20044;-78
2023/04/26 07:58:37;;;;;;;17.33;8.57;;;;;;;;;;5070038;28;20051;-78
2023/04/26 08:01:04;;;;;;;13.27;7.78;;;;;;;;;;5069643;28;20129;-78
2023/04/26 08:03:31;;;;;;;15.90;8.38;;;;;;;;;;5048639;28;20048;-78
2023/04/26 08:06:00;;;;;;;14.10;7.85;;;;;;;;;;5050124;28;20044;-77
2023/04/26 08:08:28;;;;;;;16.50;7.22;;;;;;;;;;5050426;28;20364;-77
2023/04/26 08:10:55;;;;;;;18.73;8.98;;;;;;;;;;5049807;28;20159;-78
2023/04/26 08:13:22;;;;;;;14.50;7.43;;;;;;;;;;5050006;28;20053;-78
2023/04/26 08:15:50;;;;;;;16.70;8.45;;;;;;;;;;5051528;28;20049;-78
2023/04/26 08:18:17;;;;;;;15.05;8.10;;;;;;;;;;5052940;28;20087;-80
2023/04/26 08:20:44;;;;;;;12.95;7.80;;;;;;;;;;5052722;28;20527;-79
2023/04/26 08:23:11;;;;;;;15.25;8.73;;;;;;;;;;5050344;28;20397;-78
2023/04/26 08:25:38;;;;;;;12.30;6.82;;;;;;;;;;5050143;28;20045;-77
2023/04/26 08:28:06;;;;;;;13.00;7.63;;;;;;;;;;5050356;28;20072;-78
2023/04/26 08:30:33;;;;;;;17.48;8.23;;;;;;;;;;5057070;28;20281;-78
2023/04/26 08:33:01;;;;;;;13.70;7.40;;;;;;;;;;5057367;28;20103;-79
2023/04/26 08:35:28;;;;;;;18.73;10.30;;;;;;;;;;5052062;28;20045;-78
2023/04/26 08:37:54;;;;;;;14.70;8.38;;;;;;;;;;5051096;28;20124;-79
2023/04/26 08:40:23;;;;;;;15.85;8.85;;;;;;;;;;5051878;28;20053;-78
2023/04/26 08:42:52;;;;;;;18.95;8.95;;;;;;;;;;5051852;28;20049;-78
2023/04/26 08:45:19;;;;;;;13.18;7.75;;;;;;;;;;5050888;28;20052;-78
2023/04/26 08:47:48;;;;;;;13.45;7.18;;;;;;;;;;5051387;28;20053;-78
2023/04/26 08:50:19;;;;;;;12.13;6.57;;;;;;;;;;5051995;28;20110;-78
2023/04/26 08:52:48;;;;;;;11.68;7.65;;;;;;;;;;5050886;28;20077;-77
2023/04/26 08:55:16;;;;;;;10.73;6.90;;;;;;;;;;5054781;28;20041;-78
2023/04/26 08:57:43;;;;;;;16.73;7.82;;;;;;;;;;5053617;28;20080;-78
2023/04/26 09:00:12;;;;;;;11.65;6.97;;;;;;;;;;5053440;28;20044;-78
2023/04/26 09:02:41;;;;;;;13.15;7.35;;;;;;;;;;5052905;28;20056;-78
2023/04/26 09:05:09;;;;;;;11.63;7.00;;;;;;;;;;5053278;28;20541;-77
2023/04/26 09:07:41;;;;;;;11.18;6.28;;;;;;;;;;5052931;28;20487;-76
2023/04/26 09:10:10;;;;;;;10.13;6.70;;;;;;;;;;5053084;28;20053;-77
2023/04/26 09:12:36;;;;;;;13.70;7.20;;;;;;;;;;5052678;28;20509;-76
2023/04/26 09:15:06;;;;;;;12.43;6.85;;;;;;;;;;5053075;28;20048;-78
2023/04/26 09:17:35;;;;;;;13.73;6.93;;;;;;;;;;5052575;28;20044;-77
2023/04/26 09:20:16;;;;;;;12.50;5.88;;;;;;;;;;5052956;28;20115;-77
2023/04/26 09:22:45;;;;;;;11.75;6.60;;;;;;;;;;5052678;28;20128;-78
2023/04/26 09:25:13;;;;;;;9.52;5.78;;;;;;;;;;5053165;28;20099;-77
2023/04/26 09:27:42;;;;;;;11.38;6.35;;;;;;;;;;5053183;28;20049;-76
2023/04/26 09:30:14;;;;;;;10.35;5.55;;;;;;;;;;5053892;28;20786;-77
2023/04/26 09:32:49;;;;;;;8.32;5.03;;;;;;;;;;5054692;28;20045;-76
2023/04/26 09:35:27;;;;;;;11.80;6.35;;;;;;;;;;5071510;28;20032;-77
2023/04/26 09:37:57;;;;;;;9.90;5.93;;;;;;;;;;5076384;28;20041;-78
2023/04/26 09:40:25;;;;;;;10.85;6.00;;;;;;;;;;5059706;28;20128;-77
2023/04/26 09:43:01;;;;;;;12.10;6.30;;;;;;;;;;5054110;28;20045;-78
2023/04/26 09:45:29;;;;;;;11.75;6.22;;;;;;;;;;5067349;28;20041;-78
2023/04/26 09:47:56;;;;;;;11.32;6.35;;;;;;;;;;5072267;28;20059;-78
2023/04/26 09:50:27;;;;;;;11.38;5.80;;;;;;;;;;5074897;28;20045;-77
2023/04/26 09:52:55;;;;;;;13.68;5.72;;;;;;;;;;5066238;28;20055;-77
2023/04/26 09:55:32;;;;;;;10.93;5.53;;;;;;;;;;5058994;28;20136;-78
2023/04/26 09:57:59;;;;;;;9.88;5.47;;;;;;;;;;5057914;28;20481;-76
2023/04/26 10:00:27;;;;;;;12.07;5.43;;;;;;;;;;5062457;28;20053;-77
2023/04/26 10:02:55;;;;;;;13.25;5.63;;;;;;;;;;5055837;28;20575;-78
2023/04/26 10:05:22;;;;;;;12.00;5.22;;;;;;;;;;5053735;28;20053;-80
2023/04/26 10:07:50;;;;;;;11.07;5.38;;;;;;;;;;5055460;28;20100;-80
2023/04/26 10:10:20;;;;;;;8.18;4.65;;;;;;;;;;5054669;28;20045;-77
2023/04/26 10:12:47;;;;;;;9.07;4.95;;;;;;;;;;5054370;28;20194;-78
2023/04/26 10:15:15;;;;;;;9.90;5.50;;;;;;;;;;5059269;28;20049;-78
2023/04/26 10:17:41;;;;;;;9.27;5.82;;;;;;;;;;5060616;28;20051;-78
2023/04/26 10:20:12;;;;;;;9.88;5.63;;;;;;;;;;5062469;28;20068;-78
2023/04/26 10:22:45;;;;;;;13.80;5.80;;;;;;;;;;5060393;28;20045;-79
2023/04/26 10:25:12;;;;;;;8.98;5.80;;;;;;;;;;5062189;28;20056;-80
2023/04/26 10:27:51;;;;;;;9.43;5.13;;;;;;;;;;5063788;28;20107;-78
2023/04/26 10:30:27;;;;;;;10.52;5.20;;;;;;;;;;5062669;28;20048;-79
2023/04/26 10:33:15;;;;;;;8.90;5.45;;;;;;;;;;5062819;28;20478;-79
2023/04/26 10:36:04;;;;;;;8.40;5.28;;;;;;;;;;5063184;28;20048;-79
2023/04/26 10:38:31;;;;;;;8.95;5.18;;;;;;;;;;5061773;28;20549;-78
2023/04/26 10:41:31;;;;;;;8.23;4.72;;;;;;;;;;5060992;28;20080;-79
2023/04/26 10:44:21;;;;;;;9.90;5.03;;;;;;;;;;5057897;28;20041;-78
2023/04/26 10:46:51;;;;;;;10.70;5.37;;;;;;;;;;5061809;28;20282;-78
2023/04/26 10:49:21;;;;;;;8.05;4.90;;;;;;;;;;5064141;28;20057;-78
2023/04/26 10:52:11;;;;;;;7.72;3.92;;;;;;;;;;5062612;28;20049;-78
2023/04/26 10:54:57;;;;;;;6.33;3.33;;;;;;;;;;5062381;28;20116;-78
2023/04/26 10:57:45;;;;;;;6.70;3.88;;;;;;;;;;5057748;28;20071;-77
2023/04/26 11:00:34;;;;;;;7.60;4.13;;;;;;;;;;5061607;28;20061;-78
2023/04/26 11:03:07;;;;;;;9.45;4.63;;;;;;;;;;5061478;28;20104;-78
2023/04/26 11:05:53;;;;;;;11.60;4.80;;;;;;;;;;5060739;28;20041;-78
2023/04/26 11:08:21;;;;;;;8.82;5.32;;;;;;;;;;5061053;28;20049;-78
2023/04/26 11:10:52;;;;;;;8.57;5.20;;;;;;;;;;5061954;28;20047;-78
2023/04/26 11:13:20;;;;;;;10.73;5.78;;;;;;;;;;5059804;28;20064;-78
2023/04/26 11:15:53;;;;;;;9.65;5.32;;;;;;;;;;5060693;28;20051;-79
2023/04/26 11:18:20;;;;;;;9.98;5.47;;;;;;;;;;5059842;28;20041;-78
2023/04/26 11:20:47;;;;;;;9.88;6.53;;;;;;;;;;5061745;28;20041;-78
2023/04/26 11:23:14;;;;;;;9.02;5.85;;;;;;;;;;5059895;28;20045;-78
2023/04/26 11:25:40;;;;;;;8.73;5.63;;;;;;;;;;5058722;28;20403;-78
2023/04/26 11:28:07;;;;;;;10.07;4.97;;;;;;;;;;5059954;28;20503;-78
2023/04/26 11:30:34;;;;;;;9.00;4.50;;;;;;;;;;5053712;28;20222;-77
2023/04/26 11:33:03;;;;;;;11.50;4.97;;;;;;;;;;5065360;28;20055;-79
2023/04/26 11:35:32;;;;;;;8.85;5.10;;;;;;;;;;5090837;28;20032;-79
2023/04/26 11:38:00;;;;;;;10.27;6.05;;;;;;;;;;5091250;28;20070;-78
2023/04/26 11:40:31;;;;;;;10.70;6.03;;;;;;;;;;5084138;28;20108;-78
2023/04/26 11:43:02;;;;;;;11.38;6.05;;;;;;;;;;5079025;28;20569;-78
2023/04/26 11:45:28;;;;;;;9.60;6.32;;;;;;;;;;5076487;28;20052;-78
2023/04/26 11:47:56;;;;;;;10.23;5.95;;;;;;;;;;5081292;28;20044;-78
2023/04/26 11:50:25;;;;;;;10.20;5.40;;;;;;;;;;5082584;28;20044;-77
2023/04/26 11:52:54;;;;;;;10.52;5.45;;;;;;;;;;5082571;28;20056;-77
2023/04/26 11:55:24;;;;;;;12.05;5.80;;;;;;;;;;5084318;28;20044;-78
2023/04/26 11:57:51;;;;;;;8.83;6.13;;;;;;;;;;5080783;28;20052;-77
2023/04/26 12:00:19;;;;;;;10.00;5.07;;;;;;;;;;5071204;28;20321;-80
2023/04/26 12:02:46;;;;;;;6.18;4.35;;;;;;;;;;5055360;28;20518;-79
2023/04/26 12:05:21;;;;;;;9.57;4.80;;;;;;;;;;5060300;28;20052;-78
2023/04/26 12:07:55;;;;;;;9.70;4.95;;;;;;;;;;5061089;28;20049;-78
2023/04/26 12:10:25;;;;;;;9.35;4.45;;;;;;;;;;5060864;28;20049;-79
2023/04/26 12:12:53;;;;;;;9.38;4.85;;;;;;;;;;5062523;28;20159;-78
2023/04/26 12:15:23;;;;;;;8.65;4.28;;;;;;;;;;5062560;28;20055;-78
2023/04/26 12:17:58;;;;;;;6.87;3.93;;;;;;;;;;5063871;28;20073;-79
2023/04/26 12:20:32;;;;;;;9.75;4.50;;;;;;;;;;5061868;28;20289;-78
2023/04/26 12:23:05;;;;;;;10.05;4.78;;;;;;;;;;5061125;28;20048;-78
2023/04/26 12:25:33;;;;;;;8.52;3.78;;;;;;;;;;5062356;28;20041;-78
2023/04/26 12:28:00;;;;;;;6.68;3.80;;;;;;;;;;5079702;28;20495;-79
2023/04/26 12:30:28;;;;;;;9.68;4.80;;;;;;;;;;5085883;28;20084;-79
2023/04/26 12:32:55;;;;;;;8.50;4.47;;;;;;;;;;5083775;28;20104;-79
2023/04/26 12:35:23;;;;;;;9.35;4.38;;;;;;;;;;5085214;28;20582;-79
2023/04/26 12:37:51;;;;;;;8.93;4.72;;;;;;;;;;5084409;28;20045;-78
2023/04/26 12:40:20;;;;;;;8.77;5.35;;;;;;;;;;5084217;28;20074;-79
2023/04/26 12:42:47;;;;;;;7.93;4.55;;;;;;;;;;5084342;28;20087;-80
2023/04/26 12:45:14;;;;;;;8.90;4.25;;;;;;;;;;5083580;28;20143;-79
2023/04/26 12:47:41;;;;;;;8.20;4.47;;;;;;;;;;5083168;28;20048;-78
2023/04/26 12:50:10;;;;;;;8.73;4.70;;;;;;;;;;5083454;28;20048;-79
2023/04/26 12:52:37;;;;;;;9.02;5.60;;;;;;;;;;5083235;28;20053;-79
2023/04/26 12:55:04;;;;;;;8.82;4.68;;;;;;;;;;5083684;28;20075;-79
2023/04/26 12:57:33;;;;;;;6.53;4.53;;;;;;;;;;5085124;28;20048;-79
2023/04/26 12:59:59;;;;;;;8.05;4.35;;;;;;;;;;5081879;28;20049;-83
2023/04/26 13:02:26;;;;;;;8.88;4.78;;;;;;;;;;5070006;28;20080;-78
2023/04/26 13:04:52;;;;;;;8.32;4.63;;;;;;;;;;5066314;28;20056;-78
2023/04/26 13:07:20;;;;;;;8.50;4.57;;;;;;;;;;5064803;28;20041;-79
2023/04/26 13:09:46;;;;;;;7.93;4.70;;;;;;;;;;5058897;28;20048;-77
2023/04/26 13:12:13;;;;;;;6.65;4.60;;;;;;;;;;5055446;28;20128;-78
2023/04/26 13:14:41;;;;;;;8.82;5.13;;;;;;;;;;5055886;28;20059;-78
2023/04/26 13:17:09;;;;;;;9.52;4.88;;;;;;;;;;5056134;28;20128;-78
2023/04/26 13:19:36;;;;;;;8.38;4.88;;;;;;;;;;5056015;28;20488;-77
2023/04/26 13:22:03;;;;;;;8.18;4.80;;;;;;;;;;5056369;28;20064;-78
2023/04/26 13:24:30;;;;;;;6.43;4.32;;;;;;;;;;5047281;28;20053;-77
2023/04/26 13:26:58;;;;;;;9.45;4.65;;;;;;;;;;5047293;28;20045;-77
2023/04/26 13:29:25;;;;;;;10.52;5.85;;;;;;;;;;5058593;28;20049;-78
2023/04/26 13:31:53;;;;;;;8.15;4.65;;;;;;;;;;5052705;28;20050;-77
2023/04/26 13:34:20;;;;;;;9.77;4.45;;;;;;;;;;5048328;28;20505;-78
2023/04/26 13:36:47;;;;;;;8.23;4.32;;;;;;;;;;5037602;28;20045;-78
2023/04/26 13:39:14;;;;;;;7.38;4.00;;;;;;;;;;5037038;28;20400;-78
2023/04/26 13:41:40;;;;;;;8.73;4.10;;;;;;;;;;5037127;28;20053;-78
2023/04/26 13:44:07;;;;;;;8.55;4.05;;;;;;;;;;5036993;28;20129;-78
2023/04/26 13:46:35;;;;;;;6.88;4.10;;;;;;;;;;5036832;28;20042;-77
2023/04/26 13:49:04;;;;;;;6.88;4.40;;;;;;;;;;5045750;28;20052;-78
2023/04/26 13:51:31;;;;;;;7.55;4.47;;;;;;;;;;5052296;28;20247;-78
2023/04/26 13:53:58;;;;;;;8.70;4.45;;;;;;;;;;5059312;28;20060;-77
2023/04/26 13:56:25;;;;;;;8.63;4.57;;;;;;;;;;5070821;28;20049;-78
2023/04/26 13:58:56;;;;;;;5.68;3.67;;;;;;;;;;5060101;28;20042;-77
2023/04/26 14:01:22;;;;;;;8.52;4.30;;;;;;;;;;5052649;28;20045;-78
2023/04/26 14:03:49;;;;;;;6.20;3.85;;;;;;;;;;5044604;28;20065;-78
2023/04/26 14:06:17;;;;;;;8.05;4.03;;;;;;;;;;5048556;28;20044;-79
2023/04/26 14:08:44;;;;;;;7.10;4.20;;;;;;;;;;5045802;28;20045;-78
2023/04/26 14:11:11;;;;;;;8.90;5.07;;;;;;;;;;5043993;28;20060;-78
2023/04/26 14:13:38;;;;;;;8.05;4.03;;;;;;;;;;5050713;28;20052;-78
2023/04/26 14:16:05;;;;;;;8.77;4.10;;;;;;;;;;5052688;28;20063;-79
2023/04/26 14:18:32;;;;;;;7.70;4.32;;;;;;;;;;5064723;28;20045;-79
2023/04/26 14:20:58;;;;;;;9.32;4.50;;;;;;;;;;5063658;28;20652;-79
2023/04/26 14:23:27;;;;;;;8.70;4.40;;;;;;;;;;5061656;28;20132;-78
2023/04/26 14:25:54;;;;;;;9.30;5.03;;;;;;;;;;5062065;28;20071;-78
2023/04/26 14:28:20;;;;;;;7.05;3.88;;;;;;;;;;5053637;28;20127;-77
2023/04/26 14:30:47;;;;;;;8.85;4.25;;;;;;;;;;5054172;28;20049;-78
2023/04/26 14:33:13;;;;;;;7.65;4.13;;;;;;;;;;5061260;22;20045;-79
2023/04/26 14:35:40;;;;;;;7.47;4.22;;;;;;;;;;5055078;28;20051;-79
2023/04/26 14:38:07;;;;;;;8.68;4.60;;;;;;;;;;5055599;28;20075;-79
2023/04/26 14:40:36;;;;;;;7.25;4.05;;;;;;;;;;5055093;28;20056;-79